KDUG/DUG METAR and TAF weather

Enter ICAO airport designator
Station Type Date Time Source
KDUG METAR 2019/10/18 05:56 UTC NOAA

KDUG 180556Z AUTO 14003KT 10SM CLR 19/09 A2990 RMK AO2 SLP061 T01890089 10278 20189 51007 TSNO


Station Type Date Time Source
KDUG Decoded METAR 2019/10/18 05:56 UTC NOAA

BISBEE DOUGLAS INTERNATIONAL AIRPORT , AZ, United States (KDUG) 31-28N 109-36W
Oct 18, 2019 - 01:56 AM EDT / 2019.10.18 0556 UTC
Wind: from the SE (140 degrees) at 3 MPH (3 KT):0
Visibility: 10 mile(s):0
Sky conditions: clear
Temperature: 66.0 F (18.9 C)
Dew Point: 48.0 F (8.9 C)
Relative Humidity: 52%
Pressure (altimeter): 29.9 in. Hg (1012 hPa)
Pressure tendency: 0.02 inches (0.7 hPa) higher than three hours ago
ob: KDUG 180556Z AUTO 14003KT 10SM CLR 19/09 A2990 RMK AO2 SLP061 T01890089 10278 20189 51007 TSNO
cycle: 6

Station Type Date Time Source
KDUG TAF 2019/10/18 06:22 UTC NOAA

TAF KDUG 180520Z 1806/1906 17009KT P6SM SKC
FM181600 22015G23KT P6SM FEW040
FM182000 26016G25KT P6SM SCT050
FM190100 30010KT P6SM SKC

Example: see airport list